Terminal Aerodrome Forecast
Issued by NWS

Home | Current Version | Previous Version | Graphics & Text | Print | Product List | Glossary On
Versions: 1 2 3 4 5 6 7 8 9 10 11 12 13 14 15 16 17 18 19 20 21 22 23 24 25 26 27 28 29
000
FTUS43 KGRB 241406 AAA
TAFCWA
TAF AMD
KCWA 241406Z 2414/2512 05005KT P6SM BKN015
      TEMPO 2414/2415 SCT015
     FM241600 06005KT P6SM SCT040
     FM242100 12004KT P6SM FEW060
     FM250200 13003KT P6SM SKC=

USA.gov is the U.S. government's official web portal to all federal, state and local government web resources and services.